UGTB Airport Information

Runway Information
Runway 13L Length 8202 ft width 196 ft
Elevation 1621 ft Threshold 0 ft Heading 133
Runway 31R Length 8202 ft Width 196 ft
Elevation 1572 ft Threshold 0 ft Heading 313
Runway 13R Length 9843 ft width 147 ft
Elevation 1624 ft Threshold 0 ft Heading 136
Runway 31L Length 9843 ft Width 147 ft
Elevation 1558 ft Threshold 0 ft Heading 316
Airport Frequencies
Type APP Name APP Frequency 127.2 MHZ
Type ATIS Name ATIS Frequency 132.8 MHZ
Type GND Name GND Frequency 119 MHZ
Type TWR Name TWR Frequency 128 MHZ
Airport Navaids
Airport Weather Information & NOTAM
ADDS - METARS form results

(2243 UTC 19 September 2020)
Data provider http://aviationweather.gov/metar/data/
 
METAR text: UGTB 192230Z 31010KT CAVOK 18/12 Q1019 NOSIG
Conditions at: UGTB (TBILISI/NOVO-AL , GE) observed 2230 UTC 19 September 2020
Temperature: 18.0°C (64°F)
Dewpoint: 12.0°C (54°F) [RH = 68%]
Pressure (altimeter): 30.09 inches Hg (1019.0 mb)
Winds: from the NW (310 degrees) at 12 MPH (10 knots; 5.1 m/s)
Visibility: 6 or more miles (10+ km)
Ceiling: ceiling and visibility are OK
Clouds: unknown
Weather: no significant weather observed at this time

METAR text: UGTB 192200Z 31014KT 9999 FEW034 19/12 Q1018 NOSIG
Conditions at: UGTB (TBILISI/NOVO-AL , GE) observed 2200 UTC 19 September 2020
Temperature: 19.0°C (66°F)
Dewpoint: 12.0°C (54°F) [RH = 64%]
Pressure (altimeter): 30.06 inches Hg (1018.0 mb)
Winds: from the NW (310 degrees) at 16 MPH (14 knots; 7.2 m/s)
Visibility: 6 or more miles (10+ km)
Ceiling: at least 12,000 feet AGL
Clouds: few clouds at 3400 feet AGL
Weather: no significant weather observed at this time

Forecast for: UGTB (TBILISI/NOVO-AL , GE)
Text: TAF UGTB 191700Z 1918/2018 31020KT CAVOK TX26/2012Z TN15/2002Z
Forecast period: 1800 to 2000 UTC 19 September 2020
Forecast type: FROM: standard forecast or significant change
Winds: from the NW (310 degrees) at 23 MPH (20 knots; 10.3 m/s)
Visibility: 6 or more miles (10+ km)
Ceiling: unknown
Clouds: missing
Weather: no significant weather forecast for this period
Text: BECMG 1920/1922 31010KT
Forecast period: 2000 UTC 19 September 2020 to 0700 UTC 20 September 2020
Forecast type: BECOMING: Conditions expected to become as follows by 2200 UTC 19 September 2020
Winds: from the NW (310 degrees) at 12 MPH (10 knots; 5.1 m/s)
Visibility: 6 or more miles (10+ km)
Ceiling: unknown
Clouds: missing
Weather: no significant weather forecast for this period
Text: BECMG 2007/2010 14005KT
Forecast period: 0700 to 1800 UTC 20 September 2020
Forecast type: BECOMING: Conditions expected to become as follows by 1000 UTC 20 September 2020
Winds: from the SE (140 degrees) at 6 MPH (5 knots; 2.6 m/s)
Visibility: 6 or more miles (10+ km)
Ceiling: unknown
Clouds: missing
Weather: no significant weather forecast for this period